createdAt,value
2022-09-06T00:02:03.459Z,17.95
2022-09-06T00:05:09.687Z,17.94
2022-09-06T00:08:14.823Z,17.91
2022-09-06T00:11:20.691Z,17.89
2022-09-06T00:14:24.423Z,17.92
2022-09-06T00:17:28.032Z,17.87
2022-09-06T00:20:33.421Z,17.84
2022-09-06T00:23:37.046Z,17.84
2022-09-06T00:26:42.155Z,17.81
2022-09-06T00:29:45.778Z,17.78
2022-09-06T00:32:49.482Z,17.75
2022-09-06T00:36:00.274Z,17.69
2022-09-06T00:39:04.430Z,17.63
2022-09-06T00:42:12.904Z,17.61
2022-09-06T00:45:16.879Z,17.54
2022-09-06T00:48:22.399Z,17.52
2022-09-06T00:51:30.057Z,17.47
2022-09-06T00:54:34.203Z,17.40
2022-09-06T00:57:40.173Z,17.40
2022-09-06T01:00:44.899Z,17.38
2022-09-06T01:03:49.274Z,17.37
2022-09-06T01:07:07.095Z,17.32
2022-09-06T01:10:41.759Z,17.34
2022-09-06T01:14:01.299Z,17.39
2022-09-06T01:17:19.675Z,17.36
2022-09-06T01:20:39.168Z,17.36
2022-09-06T01:24:36.511Z,17.38
2022-09-06T01:28:26.945Z,17.39
2022-09-06T01:31:42.887Z,17.35
2022-09-06T01:34:55.732Z,17.29
2022-09-06T01:38:01.734Z,17.28
2022-09-06T01:41:05.661Z,17.28
2022-09-06T01:44:10.803Z,17.26
2022-09-06T01:47:30.977Z,17.23
2022-09-06T01:50:59.975Z,17.18
2022-09-06T01:54:27.503Z,17.14
2022-09-06T01:57:57.826Z,17.06
2022-09-06T02:01:10.162Z,17.04
2022-09-06T02:04:24.156Z,17.01
2022-09-06T02:07:32.314Z,16.99
2022-09-06T02:10:44.636Z,16.95
2022-09-06T02:13:53.756Z,16.90
2022-09-06T02:17:02.250Z,16.89
2022-09-06T02:20:14.263Z,16.88
2022-09-06T02:23:21.756Z,16.85
2022-09-06T02:26:31.014Z,16.89
2022-09-06T02:29:36.536Z,16.87
2022-09-06T02:32:52.099Z,16.85
2022-09-06T02:35:57.406Z,16.84
2022-09-06T02:39:02.106Z,16.82
2022-09-06T02:42:07.243Z,16.81
2022-09-06T02:45:11.788Z,16.80
2022-09-06T02:48:17.471Z,16.84
2022-09-06T02:51:21.182Z,16.83
2022-09-06T02:54:25.161Z,16.80
2022-09-06T02:57:28.942Z,16.80
2022-09-06T03:00:32.981Z,16.78
2022-09-06T03:03:38.132Z,16.76
2022-09-06T03:06:41.736Z,16.74
2022-09-06T03:09:45.396Z,16.75
2022-09-06T03:12:49.774Z,16.81
2022-09-06T03:15:54.396Z,16.75
2022-09-06T03:18:59.483Z,16.75
2022-09-06T03:22:03.107Z,16.76
2022-09-06T03:25:08.559Z,16.73
2022-09-06T03:28:12.879Z,16.67
2022-09-06T03:31:16.637Z,16.69
2022-09-06T03:34:21.678Z,16.68
2022-09-06T03:37:25.369Z,16.68
2022-09-06T03:40:29.338Z,16.64
2022-09-06T03:43:34.039Z,16.62
2022-09-06T03:46:37.862Z,16.57
2022-09-06T03:49:42.930Z,16.62
2022-09-06T03:52:46.668Z,16.60
2022-09-06T03:55:53.093Z,16.55
2022-09-06T03:58:56.753Z,16.52
2022-09-06T04:02:00.471Z,16.53
2022-09-06T04:05:06.507Z,16.53
2022-09-06T04:08:10.137Z,16.50
2022-09-06T04:11:13.901Z,16.49
2022-09-06T04:14:17.703Z,16.51
2022-09-06T04:17:22.406Z,16.55
2022-09-06T04:20:27.529Z,16.50
2022-09-06T04:23:34.288Z,16.50
2022-09-06T04:26:40.257Z,16.50
2022-09-06T04:29:44.298Z,16.45
2022-09-06T04:32:47.960Z,16.42
2022-09-06T04:35:54.147Z,16.42
2022-09-06T04:38:57.852Z,16.44
2022-09-06T04:42:01.687Z,16.41
2022-09-06T04:45:06.648Z,16.40
2022-09-06T04:48:10.656Z,16.38
2022-09-06T04:51:15.729Z,16.37
2022-09-06T04:54:19.714Z,16.35
2022-09-06T04:57:24.014Z,16.29
2022-09-06T05:00:28.265Z,16.26
2022-09-06T05:03:32.006Z,16.23
2022-09-06T05:06:38.204Z,16.20
2022-09-06T05:09:41.842Z,16.25
2022-09-06T05:12:45.482Z,16.24
2022-09-06T05:15:49.237Z,16.20
2022-09-06T05:18:52.964Z,16.14
2022-09-06T05:21:57.989Z,16.13
2022-09-06T05:25:01.601Z,16.11
2022-09-06T05:28:05.298Z,16.09
2022-09-06T05:31:12.017Z,16.11
2022-09-06T05:34:15.781Z,16.10
2022-09-06T05:37:20.771Z,16.07
2022-09-06T05:40:24.470Z,16.07
2022-09-06T05:43:28.123Z,16.08
2022-09-06T05:46:31.891Z,16.07
2022-09-06T05:49:46.316Z,16.10
2022-09-06T05:52:51.434Z,16.10
2022-09-06T05:55:55.280Z,16.10
2022-09-06T05:58:59.023Z,16.16
2022-09-06T06:02:07.048Z,16.16
2022-09-06T06:05:11.243Z,16.17
2022-09-06T06:08:16.383Z,16.21
2022-09-06T06:11:21.866Z,16.23
2022-09-06T06:14:25.720Z,16.09
2022-09-06T06:17:29.517Z,16.09
2022-09-06T06:20:33.289Z,16.08
2022-09-06T06:23:38.523Z,16.10
2022-09-06T06:26:42.247Z,16.03
2022-09-06T06:29:45.936Z,16.07
2022-09-06T06:32:49.575Z,16.04
2022-09-06T06:36:01.183Z,16.08
2022-09-06T06:39:09.515Z,16.04
2022-09-06T06:42:13.783Z,16.07
2022-09-06T06:45:17.614Z,16.04
2022-09-06T06:48:21.953Z,15.93
2022-09-06T06:51:28.327Z,16.01
2022-09-06T06:54:33.440Z,15.99
2022-09-06T06:57:37.053Z,15.99
2022-09-06T07:00:41.342Z,16.06
2022-09-06T07:03:45.103Z,16.09
2022-09-06T07:10:33.565Z,16.13
2022-09-06T07:13:38.305Z,16.20
2022-09-06T07:16:42.274Z,16.23
2022-09-06T07:26:36.239Z,16.39
2022-09-06T07:29:40.495Z,16.32
2022-09-06T07:32:44.198Z,16.45
2022-09-06T07:35:58.038Z,16.46
2022-09-06T07:39:01.893Z,16.45
2022-09-06T07:42:07.654Z,16.49
2022-09-06T07:45:12.038Z,16.49
2022-09-06T07:48:15.677Z,16.54
2022-09-06T07:51:21.764Z,16.59
2022-09-06T07:54:30.479Z,16.78
2022-09-06T07:57:36.181Z,16.78
2022-09-06T08:00:41.463Z,16.76
2022-09-06T08:03:47.074Z,16.76
2022-09-06T08:10:18.452Z,16.95
2022-09-06T08:13:23.928Z,17.04
2022-09-06T08:16:30.938Z,17.08
2022-09-06T08:19:35.604Z,17.13
2022-09-06T08:22:39.463Z,16.98
2022-09-06T08:25:43.112Z,17.01
2022-09-06T08:28:48.657Z,16.98
2022-09-06T08:31:52.327Z,16.96
2022-09-06T08:34:56.144Z,17.04
2022-09-06T08:37:59.915Z,17.07
2022-09-06T08:41:17.900Z,17.13
2022-09-06T08:47:52.698Z,17.12
2022-09-06T08:51:25.314Z,17.10
2022-09-06T08:54:38.552Z,17.07
2022-09-06T08:58:07.328Z,17.18
2022-09-06T09:01:16.694Z,17.22
2022-09-06T09:04:27.352Z,17.20
2022-09-06T09:07:44.332Z,17.19
2022-09-06T09:10:52.032Z,17.27
2022-09-06T09:14:04.154Z,17.25
2022-09-06T09:17:21.817Z,17.17
2022-09-06T09:20:25.468Z,17.25
2022-09-06T09:23:31.031Z,17.21
2022-09-06T09:26:50.147Z,17.27
2022-09-06T09:33:31.646Z,17.18
2022-09-06T09:36:35.319Z,17.16
2022-09-06T09:39:41.726Z,17.21
2022-09-06T09:42:46.188Z,17.22
2022-09-06T09:46:13.284Z,17.32
2022-09-06T09:49:31.084Z,17.32
2022-09-06T09:52:34.728Z,17.41
2022-09-06T09:55:39.919Z,17.45
2022-09-06T09:58:44.087Z,17.29
2022-09-06T10:01:48.255Z,16.79
2022-09-06T10:05:01.620Z,16.40
2022-09-06T10:08:06.398Z,15.99
2022-09-06T10:11:15.040Z,15.73
2022-09-06T10:14:31.267Z,15.59
2022-09-06T10:17:38.135Z,15.57
2022-09-06T10:20:50.408Z,15.57
2022-09-06T10:24:28.452Z,15.57
2022-09-06T10:27:33.314Z,15.53
2022-09-06T10:30:47.177Z,15.47
2022-09-06T10:34:17.754Z,15.52
2022-09-06T10:37:46.248Z,15.51
2022-09-06T10:41:09.023Z,15.57
2022-09-06T10:44:37.498Z,15.66
2022-09-06T10:48:01.586Z,15.68
2022-09-06T10:51:18.720Z,15.70
2022-09-06T10:54:26.189Z,15.77
2022-09-06T11:01:06.815Z,15.90
2022-09-06T11:04:21.741Z,15.99
2022-09-06T11:07:31.335Z,16.04
2022-09-06T11:10:40.398Z,16.09
2022-09-06T11:13:44.110Z,16.23
2022-09-06T11:16:57.692Z,16.26
2022-09-06T11:20:10.388Z,16.28
2022-09-06T11:23:42.160Z,16.33
2022-09-06T11:27:02.829Z,16.43
2022-09-06T11:30:08.283Z,16.49
2022-09-06T11:33:24.883Z,16.53
2022-09-06T11:36:38.027Z,16.62
2022-09-06T11:43:19.983Z,16.87
2022-09-06T11:47:01.746Z,16.94
2022-09-06T11:50:53.362Z,17.00
2022-09-06T11:54:24.381Z,17.06
2022-09-06T11:57:28.439Z,17.10
2022-09-06T12:00:34.003Z,17.27
2022-09-06T12:04:07.837Z,17.61
2022-09-06T12:07:14.785Z,17.78
2022-09-06T12:10:56.783Z,17.92
2022-09-06T12:14:04.134Z,18.05
2022-09-06T12:17:47.999Z,18.25
2022-09-06T12:21:04.511Z,18.33
2022-09-06T12:24:31.544Z,18.26
2022-09-06T12:27:39.275Z,18.52
2022-09-06T12:30:46.017Z,18.38
2022-09-06T12:33:52.488Z,18.61
2022-09-06T12:37:00.327Z,18.63
2022-09-06T12:40:09.108Z,18.56
2022-09-06T12:43:16.967Z,18.75
2022-09-06T12:46:20.846Z,18.67
2022-09-06T12:49:25.856Z,18.81
2022-09-06T12:52:29.622Z,18.96
2022-09-06T12:55:37.257Z,18.94
2022-09-06T12:58:41.055Z,18.82
2022-09-06T13:01:54.481Z,18.84
2022-09-06T13:05:06.656Z,19.02
2022-09-06T13:08:16.651Z,18.81
2022-09-06T13:11:29.427Z,19.01
2022-09-06T13:14:35.347Z,19.15
2022-09-06T13:17:40.180Z,19.13
2022-09-06T13:20:45.171Z,19.14
2022-09-06T13:23:51.475Z,19.13
2022-09-06T13:26:55.663Z,19.14
2022-09-06T13:30:02.436Z,19.53
2022-09-06T13:33:08.354Z,19.75
2022-09-06T13:36:32.527Z,20.27
2022-09-06T13:39:38.629Z,20.53
2022-09-06T13:42:42.287Z,20.54
2022-09-06T13:45:47.282Z,20.37
2022-09-06T13:48:50.862Z,20.17
2022-09-06T13:52:01.359Z,19.77
2022-09-06T13:55:05.272Z,19.70
2022-09-06T13:58:09.235Z,19.62
2022-09-06T14:01:14.303Z,19.77
2022-09-06T14:04:21.957Z,19.89
2022-09-06T14:07:27.262Z,19.89
2022-09-06T14:10:31.032Z,19.86
2022-09-06T14:13:34.759Z,20.03
2022-09-06T14:16:38.987Z,20.23
2022-09-06T14:19:43.260Z,20.22
2022-09-06T14:22:49.044Z,20.25
2022-09-06T14:25:57.432Z,20.47
2022-09-06T14:29:01.446Z,20.51
2022-09-06T14:32:05.373Z,20.39
2022-09-06T14:35:10.011Z,20.50
2022-09-06T14:38:15.299Z,20.44
2022-09-06T14:41:20.880Z,20.40
2022-09-06T14:44:24.749Z,20.44
2022-09-06T14:47:28.902Z,20.71
2022-09-06T14:50:32.579Z,20.79
2022-09-06T14:53:41.188Z,20.58
2022-09-06T14:56:45.284Z,20.85
2022-09-06T14:59:49.056Z,20.78
2022-09-06T15:02:52.780Z,20.73
2022-09-06T15:05:56.488Z,20.76
2022-09-06T15:09:01.764Z,20.70
2022-09-06T15:12:06.035Z,20.75
2022-09-06T15:15:10.978Z,20.58
2022-09-06T15:18:14.972Z,20.73
2022-09-06T15:21:19.207Z,20.83
2022-09-06T15:24:24.873Z,20.72
2022-09-06T15:27:29.550Z,20.93
2022-09-06T15:30:33.273Z,21.02
2022-09-06T15:33:39.123Z,20.91
2022-09-06T15:36:42.842Z,20.83
2022-09-06T15:39:47.946Z,20.79
2022-09-06T15:42:51.759Z,20.78
2022-09-06T15:45:55.558Z,20.75
2022-09-06T15:48:59.415Z,20.59
2022-09-06T15:52:06.073Z,20.33
2022-09-06T15:55:28.636Z,20.20
2022-09-06T15:58:33.296Z,20.21
2022-09-06T16:01:37.532Z,20.27
2022-09-06T16:04:41.833Z,20.18
2022-09-06T16:07:45.590Z,20.29
2022-09-06T16:10:50.684Z,20.37
2022-09-06T16:13:54.827Z,20.22
2022-09-06T16:16:58.688Z,20.27
2022-09-06T16:20:03.555Z,20.26
2022-09-06T16:23:07.336Z,20.15
2022-09-06T16:26:12.463Z,20.14
2022-09-06T16:29:19.168Z,20.21
2022-09-06T16:32:22.898Z,20.11
2022-09-06T16:35:26.663Z,19.98
2022-09-06T16:38:31.859Z,19.89
2022-09-06T16:41:41.338Z,19.86
2022-09-06T16:44:57.681Z,19.85
2022-09-06T16:48:01.349Z,19.92
2022-09-06T16:51:16.935Z,19.85
2022-09-06T16:54:21.498Z,19.83
2022-09-06T16:57:26.655Z,19.71
2022-09-06T17:00:31.039Z,19.63
2022-09-06T17:03:36.771Z,19.60
2022-09-06T17:06:44.699Z,19.52
2022-09-06T17:09:48.672Z,19.42
2022-09-06T17:12:53.850Z,19.45
2022-09-06T17:16:17.153Z,19.38
2022-09-06T17:19:22.776Z,19.31
2022-09-06T17:22:26.619Z,19.23
2022-09-06T17:25:30.265Z,19.17
2022-09-06T17:28:37.369Z,19.07
2022-09-06T17:31:41.132Z,19.00
2022-09-06T17:34:44.893Z,18.88
2022-09-06T17:37:48.712Z,18.84
2022-09-06T17:41:00.014Z,18.76
2022-09-06T17:44:05.712Z,18.70
2022-09-06T17:47:12.993Z,18.57
2022-09-06T17:50:17.614Z,18.45
2022-09-06T17:53:21.423Z,18.37
2022-09-06T17:56:25.722Z,18.32
2022-09-06T17:59:35.116Z,18.28
2022-09-06T18:02:39.587Z,18.20
2022-09-06T18:05:43.905Z,18.14
2022-09-06T18:08:48.786Z,18.06
2022-09-06T18:11:52.405Z,17.98
2022-09-06T18:14:57.986Z,17.93
2022-09-06T18:18:01.725Z,17.90
2022-09-06T18:21:08.014Z,17.90
2022-09-06T18:24:13.775Z,17.83
2022-09-06T18:27:17.729Z,17.78
2022-09-06T18:30:23.014Z,17.70
2022-09-06T18:33:26.863Z,17.66
2022-09-06T18:36:32.424Z,17.62
2022-09-06T18:39:36.360Z,17.59
2022-09-06T18:42:45.342Z,17.55
2022-09-06T18:45:51.669Z,17.50
2022-09-06T18:48:55.984Z,17.43
2022-09-06T18:52:00.184Z,17.40
2022-09-06T18:55:04.163Z,17.35
2022-09-06T18:58:07.906Z,17.27
2022-09-06T19:01:17.507Z,17.20
2022-09-06T19:04:21.940Z,17.12
2022-09-06T19:07:27.192Z,17.02
2022-09-06T19:10:32.799Z,16.95
2022-09-06T19:13:38.159Z,16.91
2022-09-06T19:16:45.263Z,16.85
2022-09-06T19:19:49.044Z,16.79
2022-09-06T19:22:53.135Z,16.73
2022-09-06T19:26:03.523Z,16.68
2022-09-06T19:29:13.103Z,16.62
2022-09-06T19:32:19.253Z,16.56
2022-09-06T19:35:23.494Z,16.53
2022-09-06T19:38:27.895Z,16.48
2022-09-06T19:41:39.141Z,16.45
2022-09-06T19:44:42.971Z,16.42
2022-09-06T19:47:48.257Z,16.37
2022-09-06T19:50:51.915Z,16.32
2022-09-06T19:53:58.122Z,16.27
2022-09-06T19:57:01.836Z,16.25
2022-09-06T20:00:07.198Z,16.21
2022-09-06T20:03:12.356Z,16.19
2022-09-06T20:06:16.062Z,16.13
2022-09-06T20:09:19.755Z,16.08
2022-09-06T20:12:24.437Z,16.08
2022-09-06T20:15:29.292Z,16.04
2022-09-06T20:18:35.459Z,16.01
2022-09-06T20:21:39.147Z,16.01
2022-09-06T20:24:42.920Z,15.95
2022-09-06T20:27:46.727Z,15.92
2022-09-06T20:30:50.619Z,15.87
2022-09-06T20:33:55.964Z,15.83
2022-09-06T20:36:59.607Z,15.83
2022-09-06T20:40:04.716Z,15.79
2022-09-06T20:43:08.527Z,15.79
2022-09-06T20:46:15.278Z,15.75
2022-09-06T20:49:21.641Z,15.72
2022-09-06T20:52:25.965Z,15.70
2022-09-06T20:55:29.731Z,15.67
2022-09-06T20:58:34.403Z,15.63
2022-09-06T21:01:41.976Z,15.64
2022-09-06T21:04:47.306Z,15.61
2022-09-06T21:07:51.012Z,15.58
2022-09-06T21:11:01.070Z,15.58
2022-09-06T21:14:06.573Z,15.54
2022-09-06T21:17:10.428Z,15.52
2022-09-06T21:20:15.768Z,15.50
2022-09-06T21:23:19.477Z,15.48
2022-09-06T21:26:24.376Z,15.48
2022-09-06T21:29:28.168Z,15.45
2022-09-06T21:32:31.828Z,15.43
2022-09-06T21:35:37.576Z,15.41
2022-09-06T21:38:45.370Z,15.37
2022-09-06T21:41:49.102Z,15.36
2022-09-06T21:44:53.519Z,15.29
2022-09-06T21:47:57.138Z,15.29
2022-09-06T21:51:02.268Z,15.27
2022-09-06T21:54:07.516Z,15.28
2022-09-06T21:57:11.200Z,15.23
2022-09-06T22:00:17.926Z,15.17
2022-09-06T22:03:21.722Z,15.14
2022-09-06T22:06:29.831Z,15.11
2022-09-06T22:09:33.491Z,15.09
2022-09-06T22:12:37.180Z,15.06
2022-09-06T22:15:41.435Z,15.07
2022-09-06T22:18:46.017Z,15.07
2022-09-06T22:21:54.525Z,15.04
2022-09-06T22:24:58.275Z,15.04
2022-09-06T22:28:02.008Z,15.01
2022-09-06T22:31:06.604Z,15.03
2022-09-06T22:34:10.690Z,15.00
2022-09-06T22:37:16.120Z,15.01
2022-09-06T22:40:19.786Z,14.98
2022-09-06T22:43:23.430Z,14.97
2022-09-06T22:46:27.428Z,14.99
2022-09-06T22:49:31.107Z,14.98
2022-09-06T22:52:36.208Z,14.95
2022-09-06T22:55:40.331Z,14.90
2022-09-06T22:58:44.070Z,14.90
2022-09-06T23:01:47.778Z,14.92
2022-09-06T23:04:51.550Z,14.90
2022-09-06T23:07:57.727Z,14.88
2022-09-06T23:11:08.070Z,14.88
2022-09-06T23:14:11.944Z,14.88
2022-09-06T23:17:15.604Z,14.86
2022-09-06T23:20:19.995Z,14.85
2022-09-06T23:23:25.122Z,14.84
2022-09-06T23:26:31.997Z,14.80
2022-09-06T23:29:35.699Z,14.80
2022-09-06T23:32:39.774Z,14.78
2022-09-06T23:35:43.894Z,14.77
2022-09-06T23:38:49.172Z,14.77
2022-09-06T23:41:52.775Z,14.71
2022-09-06T23:44:59.119Z,14.68
2022-09-06T23:48:02.881Z,14.64
2022-09-06T23:51:07.513Z,14.63
2022-09-06T23:54:12.759Z,14.60
2022-09-06T23:57:16.490Z,14.56
